Time;durP1;ratioP1;P1;durP2;ratioP2;P2;SDS_P1;SDS_P2;PMS_P1;PMS_P2;Temp;Humidity;BMP_temperature;BMP_pressure;BME280_temperature;BME280_humidity;BME280_pressure;Samples;Min_cycle;Max_cycle;Signal;HPM_P1;HPM_P2
2023/09/26 00:01:38;;;;;;;13.23;2.97;;;19.20;93.80;;;;;;7387939;19;20010;-81
2023/09/26 00:04:07;;;;;;;5.35;2.53;;;19.20;93.80;;;;;;7388469;19;20010;-82
2023/09/26 00:06:36;;;;;;;7.60;2.97;;;19.20;93.80;;;;;;7389732;19;20229;-80
2023/09/26 00:09:08;;;;;;;8.38;2.80;;;19.20;93.80;;;;;;7411768;19;20007;-80
2023/09/26 00:11:39;;;;;;;10.55;2.72;;;19.20;93.80;;;;;;7388085;19;20003;-80
2023/09/26 00:14:08;;;;;;;;;;;19.20;93.80;;;;;;7389471;19;20027;-81
2023/09/26 00:16:37;;;;;;;5.57;2.70;;;19.20;93.70;;;;;;7387146;19;19911;-81
2023/09/26 00:19:06;;;;;;;7.30;2.88;;;19.10;93.70;;;;;;7388657;19;20362;-80
2023/09/26 00:21:35;;;;;;;9.13;2.75;;;19.10;93.70;;;;;;7389884;19;20003;-80
2023/09/26 00:24:04;;;;;;;6.43;3.05;;;19.10;93.70;;;;;;7410006;19;20353;-81
2023/09/26 00:26:34;;;;;;;6.55;2.95;;;19.10;93.60;;;;;;7389400;19;20006;-81
2023/09/26 00:29:09;;;;;;;6.10;3.03;;;19.10;93.50;;;;;;7389766;19;20011;-81
2023/09/26 00:31:38;;;;;;;11.95;3.42;;;19.10;93.60;;;;;;7390181;19;20009;-81
2023/09/26 00:34:07;;;;;;;14.15;3.45;;;19.10;93.60;;;;;;7389574;19;20003;-80
2023/09/26 00:36:36;;;;;;;18.42;2.97;;;19.10;93.60;;;;;;7387751;19;20250;-81
2023/09/26 00:39:05;;;;;;;10.32;2.88;;;19.10;93.60;;;;;;7408509;19;20055;-81
2023/09/26 00:41:34;;;;;;;10.52;2.63;;;19.20;93.60;;;;;;7388944;19;20021;-81
2023/09/26 00:44:08;;;;;;;7.63;2.50;;;19.20;93.50;;;;;;7389590;19;20013;-81
2023/09/26 00:46:37;;;;;;;6.25;2.90;;;19.20;93.50;;;;;;7389787;19;20323;-81
2023/09/26 00:49:06;;;;;;;8.23;2.63;;;19.20;93.50;;;;;;7389455;19;20027;-81
2023/09/26 00:51:36;;;;;;;9.13;2.75;;;19.20;93.30;;;;;;7387655;19;20026;-81
2023/09/26 00:54:05;;;;;;;9.32;3.47;;;19.20;93.40;;;;;;7412263;19;20022;-81
2023/09/26 00:56:34;;;;;;;13.15;3.03;;;19.20;93.40;;;;;;7388186;19;20011;-81
2023/09/26 00:59:06;;;;;;;10.52;3.08;;;19.20;93.50;;;;;;7388725;19;19999;-81
2023/09/26 01:01:36;;;;;;;9.32;2.55;;;19.20;93.50;;;;;;7388072;19;20003;-81
2023/09/26 01:04:07;;;;;;;13.52;2.97;;;19.10;93.50;;;;;;7387550;19;20019;-81
2023/09/26 01:06:36;;;;;;;7.80;2.55;;;19.10;93.60;;;;;;7386445;19;20006;-81
2023/09/26 01:09:10;;;;;;;5.35;2.72;;;19.10;93.70;;;;;;7409351;19;20021;-80
2023/09/26 01:11:39;;;;;;;3.83;2.60;;;19.10;93.70;;;;;;7386481;19;20007;-80
2023/09/26 01:14:10;;;;;;;11.50;2.83;;;19.10;93.70;;;;;;7385974;19;20014;-82
2023/09/26 01:16:39;;;;;;;4.90;2.53;;;19.00;93.60;;;;;;7385196;19;20018;-81
2023/09/26 01:19:08;;;;;;;7.25;2.35;;;19.00;93.70;;;;;;7387545;19;20151;-81
2023/09/26 01:21:37;;;;;;;6.30;2.65;;;19.10;93.60;;;;;;7384716;19;20011;-81
2023/09/26 01:24:09;;;;;;;9.15;2.55;;;19.00;93.60;;;;;;7410463;19;20028;-81
2023/09/26 01:26:39;;;;;;;9.98;2.50;;;19.00;93.60;;;;;;7386841;19;20260;-82
2023/09/26 01:29:08;;;;;;;4.90;2.67;;;19.00;93.60;;;;;;7387757;19;20007;-82
2023/09/26 01:31:42;;;;;;;3.67;2.58;;;19.10;93.60;;;;;;7386173;19;20018;-84
2023/09/26 01:34:13;;;;;;;10.93;2.65;;;19.10;93.50;;;;;;7386883;19;19994;-82
2023/09/26 01:36:45;;;;;;;4.90;2.60;;;19.00;93.30;;;;;;7386655;19;20031;-82
2023/09/26 01:39:17;;;;;;;;;;;19.00;93.30;;;;;;7411073;19;20082;-83
2023/09/26 01:41:46;;;;;;;;;;;19.00;93.40;;;;;;7390134;19;19914;-81
2023/09/26 01:44:15;;;;;;;6.57;2.92;;;19.00;93.30;;;;;;7406550;19;19915;-82
2023/09/26 01:46:45;;;;;;;6.25;2.72;;;19.00;93.20;;;;;;7403060;19;20142;-82
2023/09/26 01:49:15;;;;;;;8.00;3.00;;;18.90;93.70;;;;;;7385832;19;20013;-82
2023/09/26 01:51:48;;;;;;;5.60;3.20;;;18.90;93.30;;;;;;7390870;19;20264;-82
2023/09/26 01:54:20;;;;;;;9.20;2.80;;;18.90;93.30;;;;;;7413979;19;20035;-82
2023/09/26 01:56:49;;;;;;;6.68;2.80;;;18.80;93.40;;;;;;7395469;19;20232;-83
2023/09/26 01:59:18;;;;;;;12.45;2.83;;;18.80;93.40;;;;;;7395722;19;20003;-80
2023/09/26 02:01:47;;;;;;;9.55;3.10;;;18.80;93.40;;;;;;7398833;19;20027;-80
2023/09/26 02:04:16;;;;;;;5.03;3.20;;;18.80;93.50;;;;;;7392542;19;20007;-81
2023/09/26 02:06:45;;;;;;;6.47;3.17;;;18.80;93.60;;;;;;7392680;19;20020;-82
2023/09/26 02:09:15;;;;;;;14.55;3.10;;;18.80;93.90;;;;;;7413079;19;20014;-82
2023/09/26 02:11:47;;;;;;;9.43;3.55;;;18.80;93.40;;;;;;7393695;19;20006;-82
2023/09/26 02:14:17;;;;;;;12.45;3.38;;;18.80;93.40;;;;;;7393179;19;20014;-82
2023/09/26 02:16:46;;;;;;;7.25;3.20;;;18.80;93.30;;;;;;7393602;19;20027;-82
2023/09/26 02:19:15;;;;;;;6.40;3.15;;;18.80;93.40;;;;;;7391376;19;20046;-82
2023/09/26 02:21:44;;;;;;;10.32;3.30;;;18.80;93.40;;;;;;7391392;19;20366;-81
2023/09/26 02:24:14;;;;;;;5.20;2.72;;;18.80;93.40;;;;;;7412049;19;20030;-83
2023/09/26 02:26:46;;;;;;;5.75;2.47;;;18.80;93.30;;;;;;7390300;19;20062;-83
2023/09/26 02:29:16;;;;;;;;;;;18.80;93.30;;;;;;7392681;19;20039;-82
2023/09/26 02:31:45;;;;;;;8.02;2.88;;;18.80;93.40;;;;;;7391563;19;20218;-81
2023/09/26 02:34:14;;;;;;;11.60;3.35;;;18.70;93.40;;;;;;7389946;19;20478;-81
2023/09/26 02:36:44;;;;;;;11.65;3.20;;;18.80;93.50;;;;;;7392372;19;20082;-81
2023/09/26 02:39:13;;;;;;;11.23;2.90;;;18.80;93.50;;;;;;7413627;19;20066;-81
2023/09/26 02:41:42;;;;;;;7.32;2.75;;;18.80;93.40;;;;;;7391792;19;20072;-81
2023/09/26 02:44:13;;;;;;;7.30;2.67;;;18.80;93.30;;;;;;7391396;19;20007;-82
2023/09/26 02:46:42;;;;;;;;;;;18.80;93.30;;;;;;7392001;19;20011;-81
2023/09/26 02:49:11;;;;;;;10.80;2.65;;;18.80;93.30;;;;;;7392495;19;19907;-80
2023/09/26 02:51:39;;;;;;;10.43;3.00;;;18.80;93.20;;;;;;7388805;19;20006;-80
2023/09/26 02:54:09;;;;;;;6.88;2.78;;;18.80;93.30;;;;;;7410846;19;20003;-79
2023/09/26 02:56:37;;;;;;;8.90;2.70;;;18.70;93.40;;;;;;7393287;19;20003;-80
2023/09/26 02:59:06;;;;;;;6.47;3.30;;;18.70;93.30;;;;;;7392112;19;20014;-81
2023/09/26 03:01:38;;;;;;;7.55;3.25;;;18.70;93.40;;;;;;7391628;19;20010;-81
2023/09/26 03:04:08;;;;;;;;;;;18.70;93.40;;;;;;7392189;19;20007;-80
2023/09/26 03:06:37;;;;;;;8.63;3.25;;;18.80;93.40;;;;;;7389744;19;20245;-80
2023/09/26 03:09:07;;;;;;;6.13;3.15;;;18.70;93.30;;;;;;7411618;19;20022;-81
2023/09/26 03:11:36;;;;;;;8.60;3.38;;;18.70;93.40;;;;;;7391706;19;20369;-81
2023/09/26 03:14:04;;;;;;;8.35;2.95;;;18.70;93.50;;;;;;7392810;19;20011;-81
2023/09/26 03:16:33;;;;;;;6.70;3.42;;;18.70;93.40;;;;;;7391112;19;20038;-81
2023/09/26 03:19:05;;;;;;;9.20;3.45;;;18.70;93.50;;;;;;7391408;19;19998;-81
2023/09/26 03:21:34;;;;;;;9.48;4.22;;;18.70;93.50;;;;;;7391172;19;20007;-81
2023/09/26 03:24:03;;;;;;;12.52;5.00;;;18.70;93.50;;;;;;7412709;19;20018;-82
2023/09/26 03:26:32;;;;;;;17.45;4.82;;;18.60;93.70;;;;;;7390330;19;20309;-82
2023/09/26 03:29:01;;;;;;;10.13;4.30;;;18.60;93.80;;;;;;7391173;19;20003;-81
2023/09/26 03:31:30;;;;;;;12.43;3.60;;;18.60;93.90;;;;;;7389631;19;20006;-82
2023/09/26 03:33:59;;;;;;;7.85;3.75;;;18.60;94.00;;;;;;7390885;19;20002;-81
2023/09/26 03:36:32;;;;;;;8.55;3.42;;;18.60;93.90;;;;;;7390806;19;20007;-81
2023/09/26 03:39:01;;;;;;;10.23;3.20;;;18.50;93.80;;;;;;7422090;19;20010;-81
2023/09/26 03:41:30;;;;;;;8.95;3.65;;;18.50;93.80;;;;;;7410054;19;20015;-81
2023/09/26 03:44:02;;;;;;;9.73;3.13;;;18.50;93.80;;;;;;7409527;19;20024;-81
2023/09/26 03:46:30;;;;;;;;;;;18.50;93.70;;;;;;7409074;19;20015;-80
2023/09/26 03:48:59;;;;;;;9.00;3.30;;;18.60;93.70;;;;;;7394822;19;19906;-81
2023/09/26 03:51:33;;;;;;;8.10;2.80;;;18.50;93.50;;;;;;7384423;19;20002;-81
2023/09/26 03:54:02;;;;;;;6.88;3.20;;;18.50;93.50;;;;;;7407484;19;20267;-81
2023/09/26 03:56:31;;;;;;;9.38;3.05;;;18.50;93.50;;;;;;7384335;19;20030;-81
2023/09/26 03:58:59;;;;;;;9.32;2.88;;;18.50;93.50;;;;;;7385719;19;20071;-80
2023/09/26 04:01:28;;;;;;;9.45;3.20;;;18.50;93.50;;;;;;7383776;19;20039;-81
2023/09/26 04:03:57;;;;;;;7.72;2.97;;;18.50;93.50;;;;;;7385855;19;20011;-81
2023/09/26 04:06:26;;;;;;;8.65;3.17;;;18.50;93.50;;;;;;7384518;19;20043;-81
2023/09/26 04:08:57;;;;;;;9.00;3.08;;;18.50;93.40;;;;;;7405227;19;20014;-82
2023/09/26 04:11:26;;;;;;;;;;;18.50;93.40;;;;;;7384356;19;20267;-82
2023/09/26 04:13:54;;;;;;;12.00;3.15;;;18.50;93.40;;;;;;7382493;19;19911;-81
2023/09/26 04:16:23;;;;;;;15.30;3.08;;;18.50;93.40;;;;;;7384332;19;20028;-82
2023/09/26 04:18:52;;;;;;;13.57;2.97;;;18.50;93.40;;;;;;7383702;19;20046;-82
2023/09/26 04:21:21;;;;;;;10.45;3.08;;;18.50;93.40;;;;;;7406020;19;20006;-81
2023/09/26 04:23:50;;;;;;;7.05;3.20;;;18.40;93.40;;;;;;7384481;19;20029;-81
2023/09/26 04:26:25;;;;;;;6.43;3.22;;;18.40;93.40;;;;;;7383189;19;20006;-81
2023/09/26 04:28:53;;;;;;;8.05;2.97;;;18.40;93.30;;;;;;7384723;19;20264;-79
2023/09/26 04:31:22;;;;;;;9.35;3.50;;;18.40;93.30;;;;;;7384079;19;20003;-82
2023/09/26 04:33:52;;;;;;;6.53;3.30;;;18.40;93.30;;;;;;7383171;19;20041;-81
2023/09/26 04:36:20;;;;;;;8.88;3.20;;;18.40;93.30;;;;;;7406071;19;20267;-82
2023/09/26 04:38:49;;;;;;;9.75;3.63;;;18.40;93.30;;;;;;7384012;19;20015;-81
2023/09/26 04:41:21;;;;;;;9.82;3.00;;;18.40;93.30;;;;;;7383111;19;20003;-81
2023/09/26 04:43:49;;;;;;;;;;;18.40;93.30;;;;;;7382781;19;20006;-81
2023/09/26 04:46:19;;;;;;;7.85;3.33;;;18.40;93.30;;;;;;7381288;19;19911;-81
2023/09/26 04:48:47;;;;;;;9.63;3.20;;;18.30;93.10;;;;;;7381824;19;20006;-81
2023/09/26 04:51:17;;;;;;;9.65;3.30;;;18.30;93.20;;;;;;7402944;19;20006;-81
2023/09/26 04:53:49;;;;;;;12.38;3.30;;;18.30;93.30;;;;;;7383464;19;20026;-81
2023/09/26 04:56:20;;;;;;;10.25;3.50;;;18.30;93.30;;;;;;7382221;19;20130;-81
2023/09/26 04:58:49;;;;;;;;;;;18.20;93.30;;;;;;7384105;19;20017;-82
2023/09/26 05:01:18;;;;;;;9.63;3.30;;;18.30;93.40;;;;;;7382753;19;19911;-82
2023/09/26 05:03:47;;;;;;;13.95;4.00;;;18.30;93.30;;;;;;7381804;19;20266;-81
2023/09/26 05:06:17;;;;;;;11.73;4.00;;;18.20;93.30;;;;;;7404758;19;20042;-81
2023/09/26 05:08:47;;;;;;;12.63;4.00;;;18.20;93.30;;;;;;7382674;19;20007;-81
2023/09/26 05:11:16;;;;;;;9.70;3.72;;;18.20;93.30;;;;;;7383741;19;20023;-80
2023/09/26 05:13:48;;;;;;;8.55;4.03;;;18.20;93.30;;;;;;7391013;19;20006;-80
2023/09/26 05:16:16;;;;;;;;;;;18.20;93.30;;;;;;7400065;19;20006;-80
2023/09/26 05:18:46;;;;;;;10.43;3.92;;;18.20;93.30;;;;;;7395797;19;20364;-81
2023/09/26 05:21:15;;;;;;;10.43;3.30;;;18.20;93.30;;;;;;7425959;19;20018;-80
2023/09/26 05:23:43;;;;;;;9.55;4.00;;;18.20;93.40;;;;;;7402050;19;19995;-80
2023/09/26 05:26:14;;;;;;;9.60;3.92;;;18.20;93.40;;;;;;7387197;19;20011;-80
2023/09/26 05:28:43;;;;;;;11.30;3.80;;;18.20;93.40;;;;;;7390292;19;20017;-80
2023/09/26 05:31:14;;;;;;;10.43;3.58;;;18.10;93.30;;;;;;7386637;19;20027;-80
2023/09/26 05:33:43;;;;;;;;;;;18.10;93.30;;;;;;7392438;19;20011;-80
2023/09/26 05:36:12;;;;;;;5.32;3.85;;;18.20;93.30;;;;;;7408517;19;19941;-81
2023/09/26 05:38:40;;;;;;;14.70;5.40;;;18.20;93.30;;;;;;7388490;19;20031;-81
2023/09/26 05:41:11;;;;;;;10.88;4.70;;;18.20;93.40;;;;;;7388803;19;20233;-80
2023/09/26 05:43:40;;;;;;;12.65;4.78;;;18.10;93.30;;;;;;7389560;19;20015;-80
2023/09/26 05:46:09;;;;;;;9.73;4.18;;;18.20;93.20;;;;;;7386110;19;20003;-80
2023/09/26 05:48:42;;;;;;;11.50;3.50;;;18.20;93.20;;;;;;7389225;19;20289;-80
2023/09/26 05:51:13;;;;;;;13.13;4.18;;;18.10;93.60;;;;;;7411155;19;20010;-80
2023/09/26 05:53:42;;;;;;;;;;;18.20;93.30;;;;;;7388856;19;20006;-80
2023/09/26 05:56:10;;;;;;;16.17;3.70;;;18.20;93.10;;;;;;7386774;19;19911;-79
2023/09/26 05:58:39;;;;;;;6.63;3.40;;;18.20;93.00;;;;;;7387286;19;20006;-80
2023/09/26 06:01:11;;;;;;;8.52;3.95;;;18.10;93.00;;;;;;7389009;19;20031;-80
2023/09/26 06:03:42;;;;;;;10.18;3.63;;;18.10;93.10;;;;;;7387668;19;20002;-81
2023/09/26 06:06:11;;;;;;;7.63;3.53;;;18.10;93.20;;;;;;7407847;19;19999;-81
2023/09/26 06:08:40;;;;;;;9.02;3.30;;;18.20;93.30;;;;;;7388563;19;20030;-80
2023/09/26 06:11:10;;;;;;;19.20;3.58;;;18.20;93.40;;;;;;7387584;19;20026;-80
2023/09/26 06:13:39;;;;;;;12.68;4.07;;;18.10;93.40;;;;;;7386222;19;20100;-80
2023/09/26 06:16:08;;;;;;;12.00;4.35;;;18.20;93.50;;;;;;7389113;19;20014;-80
2023/09/26 06:18:37;;;;;;;17.38;3.85;;;18.20;93.50;;;;;;7385813;19;20002;-79
2023/09/26 06:21:09;;;;;;;6.95;3.72;;;18.20;93.40;;;;;;7406195;19;20014;-80
2023/09/26 06:23:38;;;;;;;12.32;3.20;;;18.20;93.40;;;;;;7387983;19;20020;-82
2023/09/26 06:26:07;;;;;;;8.52;4.05;;;18.30;93.70;;;;;;7387172;19;20100;-81
2023/09/26 06:28:36;;;;;;;10.25;3.97;;;18.30;93.40;;;;;;7386399;19;20002;-82
2023/09/26 06:31:08;;;;;;;8.07;3.40;;;18.30;93.40;;;;;;7391046;19;20015;-80
2023/09/26 06:33:37;;;;;;;10.43;3.47;;;18.30;93.50;;;;;;7388018;19;20031;-80
2023/09/26 06:36:18;;;;;;;10.25;3.65;;;18.40;93.60;;;;;;7405574;19;19999;-80
2023/09/26 06:38:47;;;;;;;5.95;3.33;;;18.40;93.70;;;;;;7387048;19;20022;-81
2023/09/26 06:41:16;;;;;;;6.82;3.25;;;18.40;93.70;;;;;;7386731;19;20010;-80
2023/09/26 06:43:48;;;;;;;16.45;3.80;;;18.40;93.70;;;;;;7387112;19;20006;-81
2023/09/26 06:46:17;;;;;;;10.35;4.15;;;18.50;93.80;;;;;;7385626;19;20010;-81
2023/09/26 06:48:46;;;;;;;7.65;3.75;;;18.60;93.80;;;;;;7385133;19;20846;-80
2023/09/26 06:51:17;;;;;;;12.70;3.47;;;18.60;93.80;;;;;;7407235;19;20234;-80
2023/09/26 06:53:45;;;;;;;;;;;18.70;93.80;;;;;;7386483;19;20007;-78
2023/09/26 06:56:14;;;;;;;7.78;4.40;;;18.80;93.80;;;;;;7386534;19;19906;-79
2023/09/26 06:58:43;;;;;;;6.63;4.07;;;18.90;93.80;;;;;;7386277;19;20027;-80
2023/09/26 07:01:18;;;;;;;12.70;4.00;;;18.90;93.90;;;;;;7386467;19;20007;-78
2023/09/26 07:03:47;;;;;;;9.25;4.05;;;19.00;93.90;;;;;;7384521;19;20034;-78
2023/09/26 07:06:18;;;;;;;8.93;4.38;;;19.20;93.90;;;;;;7405797;19;20031;-78
2023/09/26 07:08:47;;;;;;;;;;;19.20;93.80;;;;;;7384791;19;20009;-78
2023/09/26 07:31:23;;;;;;;15.32;4.85;;;19.70;92.60;;;;;;7382813;19;20014;-81
2023/09/26 07:33:53;;;;;;;14.93;5.05;;;19.70;92.40;;;;;;7384752;19;20010;-81
2023/09/26 07:43:13;;;;;;;20.40;4.97;;;19.80;92.40;;;;;;7366980;19;20307;-88
2023/09/26 07:45:42;;;;;;;11.43;4.78;;;19.80;92.50;;;;;;7386028;19;20256;-80
2023/09/26 07:48:14;;;;;;;14.50;4.88;;;19.80;92.10;;;;;;7407469;19;20009;-81
2023/09/26 07:50:53;;;;;;;;;;;19.80;92.10;;;;;;7390835;19;20043;-79
2023/09/26 07:53:22;;;;;;;18.38;4.20;;;19.80;92.00;;;;;;7390903;19;20179;-80
2023/09/26 07:55:51;;;;;;;9.77;3.95;;;19.80;91.90;;;;;;7389617;19;20007;-81
2023/09/26 07:58:29;;;;;;;16.95;4.53;;;19.80;92.00;;;;;;7385415;19;20006;-83
2023/09/26 08:01:00;;;;;;;22.88;4.70;;;19.80;92.10;;;;;;7384813;19;20367;-80
2023/09/26 08:03:32;;;;;;;12.27;4.25;;;19.90;92.10;;;;;;7384236;19;20006;-79
2023/09/26 08:06:00;;;;;;;;;;;19.90;92.10;;;;;;7406131;19;20007;-79
2023/09/26 08:08:31;;;;;;;12.02;3.83;;;19.90;92.10;;;;;;7381925;19;19911;-79
2023/09/26 08:11:08;;;;;;;8.15;4.00;;;19.90;92.00;;;;;;7384365;19;20010;-79
2023/09/26 08:13:40;;;;;;;13.05;3.58;;;19.90;91.80;;;;;;7384232;19;20027;-80
2023/09/26 08:16:09;;;;;;;7.38;3.60;;;20.00;91.70;;;;;;7383717;19;20017;-79
2023/09/26 08:18:40;;;;;;;9.60;3.75;;;20.00;91.60;;;;;;7384945;19;20006;-80
2023/09/26 08:21:09;;;;;;;;;;;20.00;91.50;;;;;;7403804;19;20006;-77
2023/09/26 08:23:38;;;;;;;13.43;4.05;;;20.00;91.50;;;;;;7383329;19;19907;-78
2023/09/26 08:26:11;;;;;;;16.63;5.10;;;20.10;91.30;;;;;;7380095;19;20002;-77
2023/09/26 08:28:43;;;;;;;12.85;4.93;;;20.10;91.30;;;;;;7381445;19;20007;-83
2023/09/26 08:34:02;;;;;;;20.25;4.38;;;20.10;91.20;;;;;;7382562;19;20044;-80
2023/09/26 08:36:35;;;;;;;20.13;4.18;;;20.20;91.20;;;;;;7384465;19;20007;-83
2023/09/26 08:39:05;;;;;;;14.27;4.28;;;20.20;91.20;;;;;;7405817;19;20024;-84
2023/09/26 08:41:55;;;;;;;10.90;3.60;;;20.20;91.20;;;;;;7385854;19;20087;-82
2023/09/26 08:44:34;;;;;;;12.38;4.60;;;20.20;91.20;;;;;;7382400;19;20007;-82
2023/09/26 08:53:30;;;;;;;11.87;4.00;;;20.20;91.40;;;;;;7405951;19;19975;-79
2023/09/26 08:55:59;;;;;;;11.63;4.15;;;20.10;91.40;;;;;;7379308;19;20260;-79
2023/09/26 08:58:31;;;;;;;13.00;4.00;;;20.20;91.40;;;;;;7380231;19;20007;-78
2023/09/26 09:03:50;;;;;;;9.75;3.88;;;20.20;91.30;;;;;;7382983;19;20010;-81
2023/09/26 09:06:19;;;;;;;8.27;3.80;;;20.20;91.20;;;;;;7405573;19;20422;-80
2023/09/26 09:08:51;;;;;;;14.60;4.32;;;20.20;91.20;;;;;;7384235;19;20567;-79
2023/09/26 09:11:34;;;;;;;;;;;20.20;91.30;;;;;;7384619;19;20068;-82
2023/09/26 09:14:08;;;;;;;8.63;3.58;;;20.20;91.30;;;;;;7386751;19;20234;-83
2023/09/26 09:16:41;;;;;;;10.73;3.83;;;20.30;91.30;;;;;;7383184;19;20007;-79
2023/09/26 09:19:12;;;;;;;11.45;3.70;;;20.30;91.30;;;;;;7382919;19;20003;-78
2023/09/26 09:21:40;;;;;;;16.57;3.37;;;20.30;91.10;;;;;;7395818;19;20019;-78
2023/09/26 09:24:12;;;;;;;10.20;3.70;;;20.30;91.00;;;;;;7420929;19;20011;-78
2023/09/26 09:26:41;;;;;;;13.23;3.80;;;20.30;90.90;;;;;;7399514;19;20002;-78
2023/09/26 09:29:21;;;;;;;11.13;3.60;;;20.30;90.90;;;;;;7394933;19;20017;-79
2023/09/26 09:32:04;;;;;;;11.07;3.38;;;20.30;90.90;;;;;;7383409;19;20006;-81
2023/09/26 09:34:48;;;;;;;5.43;3.35;;;20.30;90.80;;;;;;7384988;19;20017;-84
2023/09/26 09:37:54;;;;;;;8.85;3.95;;;20.40;90.90;;;;;;7383313;19;20007;-85
2023/09/26 09:40:35;;;;;;;9.55;3.40;;;20.50;90.90;;;;;;7384331;19;20703;-81
2023/09/26 09:43:04;;;;;;;12.27;3.60;;;20.50;90.80;;;;;;7382042;19;20319;-81
2023/09/26 09:45:36;;;;;;;11.73;3.30;;;20.60;90.80;;;;;;7383570;19;20211;-78
2023/09/26 09:48:11;;;;;;;12.35;3.80;;;20.60;90.90;;;;;;7399885;19;20240;-79
2023/09/26 09:50:40;;;;;;;9.43;3.35;;;20.60;90.90;;;;;;7381085;19;20007;-79
2023/09/26 09:53:11;;;;;;;15.18;4.18;;;20.60;91.00;;;;;;7382141;19;20007;-80
2023/09/26 09:55:50;;;;;;;13.15;4.30;;;20.60;91.00;;;;;;7382527;19;20235;-81
2023/09/26 09:58:30;;;;;;;11.93;3.83;;;20.60;91.10;;;;;;7382021;19;20003;-85
2023/09/26 10:01:02;;;;;;;15.27;3.85;;;20.60;91.00;;;;;;7382422;19;20264;-82
2023/09/26 10:03:33;;;;;;;12.52;4.45;;;20.70;91.00;;;;;;7388593;19;20057;-81
2023/09/26 10:06:09;;;;;;;13.15;5.90;;;20.60;91.30;;;;;;7412242;19;20015;-86
2023/09/26 10:18:45;;;;;;;10.65;3.75;;;20.70;91.20;;;;;;7414166;19;20022;-83
2023/09/26 10:21:45;;;;;;;12.60;4.90;;;20.70;91.40;;;;;;7393872;19;20006;-87
2023/09/26 11:04:11;;;;;;;10.30;3.50;;;21.40;89.10;;;;;;7304681;19;21442;-82
2023/09/26 11:38:10;;;;;;;;;;;;;;;;;;;;;
2023/09/26 11:47:03;;;;;;;8.40;3.95;;;22.30;86.70;;;;;;7411230;19;20046;-80
2023/09/26 11:49:54;;;;;;;4.53;3.05;;;22.30;86.50;;;;;;7386941;19;20237;-83
2023/09/26 11:55:38;;;;;;;9.25;3.58;;;22.40;87.80;;;;;;7413547;19;19975;-79
2023/09/26 11:58:20;;;;;;;8.00;3.17;;;22.40;87.10;;;;;;7411702;19;20011;-88
2023/09/26 12:00:51;;;;;;;;;;;22.50;86.90;;;;;;7385743;19;20035;-80
2023/09/26 12:03:22;;;;;;;16.15;4.47;;;22.50;86.80;;;;;;7411517;19;19911;-80
2023/09/26 12:05:51;;;;;;;10.52;4.30;;;22.60;86.30;;;;;;7388176;19;20369;-80
2023/09/26 12:14:46;;;;;;;3.78;2.83;;;22.90;82.70;;;;;;7407033;19;20215;-79
2023/09/26 12:21:15;;;;;;;7.53;3.05;;;23.10;80.70;;;;;;7336541;19;20045;-81
2023/09/26 12:27:02;;;;;;;151.23;87.07;;;23.40;80.90;;;;;;7406756;19;20003;-79
2023/09/26 12:32:56;;;;;;;5.57;3.10;;;23.50;78.70;;;;;;7382631;19;20061;-82
2023/09/26 12:35:49;;;;;;;6.60;3.17;;;23.60;77.80;;;;;;7385858;19;20263;-81
2023/09/26 12:38:18;;;;;;;6.70;2.70;;;23.60;77.70;;;;;;7376740;19;20006;-76
2023/09/26 12:44:28;;;;;;;4.35;2.63;;;23.60;77.90;;;;;;7442541;19;20340;-79
2023/09/26 12:46:57;;;;;;;7.45;2.72;;;23.70;77.10;;;;;;7422870;19;20030;-75
2023/09/26 12:49:26;;;;;;;5.38;2.63;;;23.70;76.60;;;;;;7414586;19;20015;-73
2023/09/26 12:51:54;;;;;;;5.15;2.78;;;23.70;77.50;;;;;;7414616;19;20023;-75
2023/09/26 12:54:25;;;;;;;7.47;2.83;;;23.80;78.50;;;;;;7436849;19;20010;-76
2023/09/26 12:56:55;;;;;;;8.45;2.80;;;24.00;78.70;;;;;;7414164;19;20010;-76
2023/09/26 12:59:26;;;;;;;5.63;2.58;;;24.10;78.20;;;;;;7417948;19;20393;-78
2023/09/26 13:01:55;;;;;;;6.03;2.72;;;24.40;77.50;;;;;;7420018;19;20296;-78
2023/09/26 13:04:24;;;;;;;3.88;2.60;;;24.60;77.00;;;;;;7421954;19;20002;-80
2023/09/26 13:06:53;;;;;;;9.27;2.47;;;24.80;76.10;;;;;;7417397;19;20381;-78
2023/09/26 13:09:22;;;;;;;5.15;2.45;;;25.00;75.80;;;;;;7441956;19;20016;-77
2023/09/26 13:11:50;;;;;;;10.18;2.70;;;25.10;73.30;;;;;;7415413;19;20014;-80
2023/09/26 13:14:20;;;;;;;6.82;2.92;;;25.20;71.80;;;;;;7419744;19;20002;-80
2023/09/26 13:16:51;;;;;;;6.43;2.67;;;25.20;71.60;;;;;;7421364;19;20013;-81
2023/09/26 13:19:22;;;;;;;5.15;2.50;;;25.30;72.00;;;;;;7419148;19;20014;-79
2023/09/26 13:21:51;;;;;;;6.20;2.85;;;25.40;72.60;;;;;;7418609;19;20027;-77
2023/09/26 13:24:37;;;;;;;5.13;2.40;;;25.40;71.20;;;;;;7440890;19;20035;-80
2023/09/26 13:29:56;;;;;;;5.90;2.40;;;25.60;69.80;;;;;;7420155;19;20034;-79
2023/09/26 13:32:28;;;;;;;18.65;2.70;;;25.60;71.00;;;;;;7416899;19;20010;-77
2023/09/26 13:34:56;;;;;;;5.70;2.60;;;25.60;69.50;;;;;;7415680;19;20019;-78
2023/09/26 13:37:25;;;;;;;11.90;2.55;;;25.50;70.40;;;;;;7417901;19;20010;-77
2023/09/26 13:39:56;;;;;;;4.82;2.80;;;25.50;72.50;;;;;;7419101;19;20145;-81
2023/09/26 13:42:25;;;;;;;;;;;25.50;71.80;;;;;;7430266;19;20014;-79
2023/09/26 13:44:54;;;;;;;7.28;2.92;;;25.50;71.50;;;;;;7442815;19;19911;-78
2023/09/26 13:47:23;;;;;;;7.57;2.53;;;25.40;72.10;;;;;;7421912;19;20062;-79
2023/09/26 13:49:54;;;;;;;5.50;2.65;;;25.40;72.70;;;;;;7418440;19;20044;-77
2023/09/26 13:52:26;;;;;;;5.80;2.35;;;25.50;71.80;;;;;;7421048;19;20285;-79
2023/09/26 13:54:55;;;;;;;10.90;2.97;;;25.50;71.80;;;;;;7395930;19;20013;-79
2023/09/26 13:57:25;;;;;;;7.05;2.83;;;25.50;71.40;;;;;;7406180;19;20054;-81
2023/09/26 13:59:54;;;;;;;5.85;2.55;;;25.30;71.30;;;;;;7412611;19;20015;-77
2023/09/26 14:02:22;;;;;;;7.97;2.67;;;25.30;71.80;;;;;;7384083;19;20271;-76
2023/09/26 14:04:54;;;;;;;6.03;3.00;;;25.20;71.80;;;;;;7384165;19;20006;-76
2023/09/26 14:07:25;;;;;;;8.38;2.70;;;25.20;71.20;;;;;;7392260;19;20006;-80
2023/09/26 14:09:54;;;;;;;11.57;2.78;;;25.30;71.20;;;;;;7396216;19;20007;-79
2023/09/26 14:12:23;;;;;;;7.75;3.10;;;25.30;71.40;;;;;;7409053;19;20034;-77
2023/09/26 14:14:52;;;;;;;4.03;2.67;;;25.30;71.90;;;;;;7390947;19;20003;-76
2023/09/26 14:17:21;;;;;;;6.05;2.70;;;25.30;72.30;;;;;;7385191;19;20014;-75
2023/09/26 14:19:50;;;;;;;8.93;2.95;;;25.30;72.60;;;;;;7384504;19;20042;-78
2023/09/26 14:22:21;;;;;;;4.18;2.65;;;25.30;72.30;;;;;;7383647;19;19998;-75
2023/09/26 14:24:50;;;;;;;7.55;2.58;;;25.40;72.40;;;;;;7381408;19;20016;-74
2023/09/26 14:27:18;;;;;;;4.22;2.60;;;25.30;72.30;;;;;;7408125;19;20010;-75
2023/09/26 14:29:53;;;;;;;11.27;3.22;;;25.40;72.70;;;;;;7385010;19;20007;-78
2023/09/26 14:32:25;;;;;;;12.98;2.90;;;25.40;72.70;;;;;;7391932;19;20020;-79
2023/09/26 14:34:55;;;;;;;5.03;2.67;;;25.30;72.50;;;;;;7392344;19;20003;-79
2023/09/26 14:37:26;;;;;;;6.33;2.87;;;25.30;73.10;;;;;;7390054;19;20032;-78
2023/09/26 14:39:55;;;;;;;4.18;2.50;;;25.20;72.20;;;;;;7386238;19;20018;-79
2023/09/26 14:42:24;;;;;;;7.30;2.92;;;25.20;71.90;;;;;;7401679;19;20011;-75
2023/09/26 14:44:53;;;;;;;4.28;2.70;;;25.20;72.10;;;;;;7404636;19;20010;-75
2023/09/26 14:47:21;;;;;;;5.90;2.50;;;25.10;71.90;;;;;;7382376;19;20007;-74
2023/09/26 14:49:50;;;;;;;5.22;2.85;;;25.10;71.30;;;;;;7382490;19;20010;-76
2023/09/26 14:52:24;;;;;;;5.82;2.20;;;25.10;71.60;;;;;;7383107;19;20055;-79
2023/09/26 14:54:55;;;;;;;10.32;3.22;;;25.00;71.90;;;;;;7385389;19;20002;-77
2023/09/26 14:57:24;;;;;;;3.60;2.45;;;25.00;73.00;;;;;;7402204;19;20018;-79
2023/09/26 14:59:53;;;;;;;7.03;2.60;;;25.00;72.50;;;;;;7410279;19;20018;-79
2023/09/26 15:02:22;;;;;;;4.53;2.60;;;24.90;72.40;;;;;;7383083;19;20094;-77
2023/09/26 15:04:50;;;;;;;283.40;181.75;;;24.90;72.50;;;;;;7386583;19;20010;-78
2023/09/26 15:07:21;;;;;;;62.65;39.70;;;24.90;72.50;;;;;;7385413;19;20366;-84
2023/09/26 15:09:50;;;;;;;;;;;24.90;72.70;;;;;;7384158;19;20007;-78
2023/09/26 15:12:22;;;;;;;9.77;3.50;;;24.90;73.00;;;;;;7407080;19;19939;-81
2023/09/26 15:14:53;;;;;;;5.50;2.83;;;24.90;73.10;;;;;;7388311;19;20274;-82
2023/09/26 15:17:23;;;;;;;6.03;2.67;;;24.90;72.70;;;;;;7384196;19;20009;-80
2023/09/26 15:19:52;;;;;;;5.20;2.60;;;24.90;72.70;;;;;;7383660;19;20018;-79
2023/09/26 15:22:32;;;;;;;;;;;;;;;;;;;;;
2023/09/26 15:25:36;;;;;;;5.90;2.75;;;24.80;73.50;;;;;;7383735;19;19998;-81
2023/09/26 15:28:13;;;;;;;8.18;2.50;;;24.80;74.50;;;;;;7407335;19;20009;-81
2023/09/26 15:30:41;;;;;;;6.45;2.78;;;24.80;74.50;;;;;;7386364;19;20015;-80
2023/09/26 15:33:10;;;;;;;4.65;2.53;;;24.80;73.80;;;;;;7404357;19;20234;-79
2023/09/26 15:35:40;;;;;;;4.07;2.42;;;24.70;74.00;;;;;;7384583;19;20086;-82
2023/09/26 15:38:09;;;;;;;4.68;2.60;;;24.70;74.50;;;;;;7384140;19;20378;-81
2023/09/26 15:40:38;;;;;;;5.97;2.60;;;24.70;75.10;;;;;;7385055;19;20034;-81
2023/09/26 15:43:09;;;;;;;10.38;3.20;;;24.70;74.70;;;;;;7383169;19;20007;-79